createdAt,value
2023-04-22T00:00:51.300Z,16.56
2023-04-22T00:01:51.312Z,16.56
2023-04-22T00:02:51.422Z,16.53
2023-04-22T00:03:51.654Z,16.47
2023-04-22T00:04:51.709Z,16.44
2023-04-22T00:05:51.578Z,16.44
2023-04-22T00:06:51.494Z,16.46
2023-04-22T00:07:51.519Z,16.46
2023-04-22T00:08:51.571Z,16.43
2023-04-22T00:09:51.593Z,16.46
2023-04-22T00:10:51.619Z,16.43
2023-04-22T00:11:51.674Z,16.46
2023-04-22T00:12:51.667Z,16.46
2023-04-22T00:13:51.685Z,16.44
2023-04-22T00:14:51.704Z,16.46
2023-04-22T00:15:51.756Z,16.44
2023-04-22T00:16:51.746Z,16.46
2023-04-22T00:17:51.791Z,16.46
2023-04-22T00:18:51.782Z,16.44
2023-04-22T00:19:51.790Z,16.46
2023-04-22T00:20:51.819Z,16.44
2023-04-22T00:21:51.864Z,16.40
2023-04-22T00:22:51.877Z,16.39
2023-04-22T00:23:51.925Z,16.39
2023-04-22T00:24:51.976Z,16.37
2023-04-22T00:25:51.975Z,16.36
2023-04-22T00:26:52.016Z,16.33
2023-04-22T00:27:52.004Z,16.34
2023-04-22T00:28:52.020Z,16.37
2023-04-22T00:29:52.059Z,16.37
2023-04-22T00:30:52.116Z,16.34
2023-04-22T00:31:52.140Z,16.34
2023-04-22T00:32:52.172Z,16.34
2023-04-22T00:33:52.194Z,16.31
2023-04-22T00:34:52.215Z,16.31
2023-04-22T00:35:52.280Z,16.29
2023-04-22T00:36:52.297Z,16.26
2023-04-22T00:37:52.356Z,16.26
2023-04-22T00:38:52.414Z,16.23
2023-04-22T00:39:52.475Z,16.24
2023-04-22T00:40:52.517Z,16.22
2023-04-22T00:41:52.606Z,16.20
2023-04-22T00:42:52.644Z,16.22
2023-04-22T00:43:52.686Z,16.20
2023-04-22T00:44:52.737Z,16.17
2023-04-22T00:45:52.796Z,16.19
2023-04-22T00:46:52.920Z,16.16
2023-04-22T00:47:52.912Z,16.16
2023-04-22T00:48:52.993Z,16.12
2023-04-22T00:49:53.024Z,16.08
2023-04-22T00:50:53.098Z,16.08
2023-04-22T00:51:53.131Z,16.08
2023-04-22T00:52:53.194Z,16.09
2023-04-22T00:53:53.259Z,16.08
2023-04-22T00:54:53.329Z,16.05
2023-04-22T00:55:53.371Z,16.06
2023-04-22T00:56:53.422Z,16.09
2023-04-22T00:57:53.471Z,16.08
2023-04-22T00:58:53.546Z,16.09
2023-04-22T00:59:53.601Z,16.10
2023-04-22T01:00:53.659Z,16.09
2023-04-22T01:01:53.780Z,16.10
2023-04-22T01:02:53.900Z,16.09
2023-04-22T01:03:54.081Z,16.06
2023-04-22T01:04:53.964Z,16.06
2023-04-22T01:05:53.925Z,16.03
2023-04-22T01:06:53.979Z,16.03
2023-04-22T01:07:54.009Z,16.05
2023-04-22T01:08:54.057Z,16.06
2023-04-22T01:09:54.090Z,16.01
2023-04-22T01:10:54.172Z,16.03
2023-04-22T01:11:54.216Z,16.06
2023-04-22T01:12:54.280Z,16.02
2023-04-22T01:13:54.307Z,16.02
2023-04-22T01:14:54.365Z,16.01
2023-04-22T01:15:54.383Z,15.93
2023-04-22T01:16:54.411Z,15.95
2023-04-22T01:17:54.413Z,15.92
2023-04-22T01:18:54.382Z,15.78
2023-04-22T01:19:54.372Z,15.71
2023-04-22T01:20:54.384Z,15.77
2023-04-22T01:21:54.404Z,15.79
2023-04-22T01:22:54.388Z,15.79
2023-04-22T01:23:54.368Z,15.78
2023-04-22T01:24:54.407Z,15.77
2023-04-22T01:25:54.396Z,15.75
2023-04-22T01:26:54.396Z,15.73
2023-04-22T01:27:54.396Z,15.69
2023-04-22T01:28:54.382Z,15.66
2023-04-22T01:29:54.413Z,15.66
2023-04-22T01:30:54.429Z,15.61
2023-04-22T01:31:54.473Z,15.60
2023-04-22T01:32:54.461Z,15.66
2023-04-22T01:33:54.428Z,15.65
2023-04-22T01:34:54.414Z,15.68
2023-04-22T01:35:54.427Z,15.68
2023-04-22T01:36:54.444Z,15.71
2023-04-22T01:37:54.415Z,15.65
2023-04-22T01:38:54.443Z,15.65
2023-04-22T01:39:54.455Z,15.68
2023-04-22T01:40:54.460Z,15.69
2023-04-22T01:41:54.455Z,15.68
2023-04-22T01:42:54.441Z,15.66
2023-04-22T01:43:54.441Z,15.68
2023-04-22T01:44:54.440Z,15.68
2023-04-22T01:45:54.441Z,15.65
2023-04-22T01:46:54.450Z,15.61
2023-04-22T01:47:54.462Z,15.57
2023-04-22T01:48:54.452Z,15.54
2023-04-22T01:49:54.491Z,15.52
2023-04-22T01:50:54.493Z,15.50
2023-04-22T01:51:54.507Z,15.51
2023-04-22T01:52:54.532Z,15.52
2023-04-22T01:53:54.540Z,15.47
2023-04-22T01:54:54.577Z,15.47
2023-04-22T01:55:54.612Z,15.48
2023-04-22T01:56:54.649Z,15.45
2023-04-22T01:57:54.681Z,15.45
2023-04-22T01:58:54.691Z,15.44
2023-04-22T01:59:54.714Z,15.40
2023-04-22T02:00:54.732Z,15.41
2023-04-22T02:01:54.935Z,15.41
2023-04-22T02:02:54.865Z,15.38
2023-04-22T02:03:55.086Z,15.37
2023-04-22T02:04:54.873Z,15.37
2023-04-22T02:05:54.848Z,15.35
2023-04-22T02:06:54.866Z,15.37
2023-04-22T02:07:54.864Z,15.34
2023-04-22T02:08:54.893Z,15.27
2023-04-22T02:09:54.950Z,15.30
2023-04-22T02:10:54.997Z,15.29
2023-04-22T02:11:55.033Z,15.29
2023-04-22T02:12:55.021Z,15.27
2023-04-22T02:13:55.059Z,15.31
2023-04-22T02:14:55.084Z,15.27
2023-04-22T02:15:55.204Z,15.29
2023-04-22T02:16:55.157Z,15.27
2023-04-22T02:17:55.213Z,15.23
2023-04-22T02:18:55.247Z,15.27
2023-04-22T02:19:55.327Z,15.26
2023-04-22T02:20:55.355Z,15.27
2023-04-22T02:21:55.372Z,15.26
2023-04-22T02:22:55.423Z,15.24
2023-04-22T02:23:55.496Z,15.20
2023-04-22T02:24:55.546Z,15.20
2023-04-22T02:25:55.571Z,15.15
2023-04-22T02:26:55.630Z,15.19
2023-04-22T02:27:55.674Z,15.13
2023-04-22T02:28:55.726Z,15.09
2023-04-22T02:29:55.778Z,15.10
2023-04-22T02:30:55.883Z,15.09
2023-04-22T02:31:55.991Z,15.10
2023-04-22T02:32:55.963Z,15.10
2023-04-22T02:33:55.997Z,15.09
2023-04-22T02:34:56.041Z,15.07
2023-04-22T02:35:56.092Z,15.10
2023-04-22T02:36:56.110Z,15.06
2023-04-22T02:37:56.203Z,15.07
2023-04-22T02:38:56.227Z,15.04
2023-04-22T02:39:56.290Z,15.03
2023-04-22T02:40:56.345Z,15.07
2023-04-22T02:41:56.400Z,15.07
2023-04-22T02:42:56.461Z,15.06
2023-04-22T02:43:56.515Z,15.04
2023-04-22T02:44:56.578Z,15.07
2023-04-22T02:45:56.629Z,15.07
2023-04-22T02:46:56.721Z,15.07
2023-04-22T02:47:56.776Z,15.10
2023-04-22T02:48:56.813Z,15.04
2023-04-22T02:49:56.873Z,15.07
2023-04-22T02:50:56.942Z,14.97
2023-04-22T02:51:56.989Z,15.02
2023-04-22T02:52:57.055Z,15.00
2023-04-22T02:53:57.110Z,14.94
2023-04-22T02:54:57.183Z,15.00
2023-04-22T02:55:57.221Z,15.00
2023-04-22T02:56:57.269Z,15.03
2023-04-22T02:57:57.312Z,14.99
2023-04-22T02:58:57.417Z,14.96
2023-04-22T02:59:57.426Z,14.96
2023-04-22T03:00:57.507Z,14.92
2023-04-22T03:01:57.491Z,14.90
2023-04-22T03:02:57.647Z,14.92
2023-04-22T03:03:57.807Z,14.86
2023-04-22T03:04:57.630Z,14.86
2023-04-22T03:05:57.656Z,14.86
2023-04-22T03:06:57.656Z,14.84
2023-04-22T03:07:57.657Z,14.84
2023-04-22T03:08:57.668Z,14.82
2023-04-22T03:09:57.681Z,14.75
2023-04-22T03:10:57.701Z,14.78
2023-04-22T03:11:57.703Z,14.73
2023-04-22T03:12:57.710Z,14.78
2023-04-22T03:13:57.722Z,14.79
2023-04-22T03:14:57.709Z,14.82
2023-04-22T03:15:57.729Z,14.79
2023-04-22T03:16:57.801Z,14.78
2023-04-22T03:17:57.749Z,14.78
2023-04-22T03:18:57.715Z,14.78
2023-04-22T03:19:57.712Z,14.75
2023-04-22T03:20:57.750Z,14.78
2023-04-22T03:21:57.776Z,14.79
2023-04-22T03:22:57.750Z,14.75
2023-04-22T03:23:57.754Z,14.80
2023-04-22T03:24:57.777Z,14.79
2023-04-22T03:25:57.809Z,14.78
2023-04-22T03:26:57.786Z,14.73
2023-04-22T03:27:57.800Z,14.71
2023-04-22T03:28:57.824Z,14.66
2023-04-22T03:29:57.814Z,14.65
2023-04-22T03:30:57.813Z,14.62
2023-04-22T03:31:57.836Z,14.61
2023-04-22T03:32:57.856Z,14.59
2023-04-22T03:33:57.821Z,14.58
2023-04-22T03:34:57.808Z,14.53
2023-04-22T03:35:57.825Z,14.52
2023-04-22T03:36:57.829Z,14.55
2023-04-22T03:37:57.851Z,14.56
2023-04-22T03:38:57.862Z,14.58
2023-04-22T03:39:57.879Z,14.48
2023-04-22T03:40:57.882Z,14.55
2023-04-22T03:41:57.878Z,14.58
2023-04-22T03:42:57.884Z,14.59
2023-04-22T03:44:00.330Z,14.63
2023-04-22T03:44:57.890Z,14.59
2023-04-22T03:45:57.902Z,14.65
2023-04-22T03:46:57.866Z,14.63
2023-04-22T03:47:57.898Z,14.68
2023-04-22T03:48:57.872Z,14.68
2023-04-22T03:49:57.840Z,14.71
2023-04-22T03:50:57.852Z,14.63
2023-04-22T03:51:57.842Z,14.62
2023-04-22T03:52:57.839Z,14.66
2023-04-22T03:53:57.823Z,14.65
2023-04-22T03:54:57.819Z,14.62
2023-04-22T03:55:57.818Z,14.58
2023-04-22T03:56:57.808Z,14.61
2023-04-22T03:57:57.799Z,14.58
2023-04-22T03:58:57.792Z,14.56
2023-04-22T03:59:57.773Z,14.55
2023-04-22T04:00:57.806Z,14.56
2023-04-22T04:01:57.791Z,14.55
2023-04-22T04:02:57.838Z,14.56
2023-04-22T04:03:57.990Z,14.55
2023-04-22T04:04:57.972Z,14.61
2023-04-22T04:05:57.763Z,14.58
2023-04-22T04:06:57.732Z,14.58
2023-04-22T04:07:57.703Z,14.59
2023-04-22T04:08:57.703Z,14.53
2023-04-22T04:09:57.704Z,14.49
2023-04-22T04:10:57.690Z,14.42
2023-04-22T04:11:57.698Z,14.42
2023-04-22T04:12:57.683Z,14.41
2023-04-22T04:13:57.660Z,14.41
2023-04-22T04:14:57.658Z,14.42
2023-04-22T04:15:57.707Z,14.46
2023-04-22T04:16:57.646Z,14.45
2023-04-22T04:17:57.658Z,14.45
2023-04-22T04:18:57.646Z,14.44
2023-04-22T04:19:57.669Z,14.45
2023-04-22T04:20:57.610Z,14.44
2023-04-22T04:21:57.612Z,14.46
2023-04-22T04:22:57.587Z,14.42
2023-04-22T04:23:57.591Z,14.38
2023-04-22T04:24:57.595Z,14.38
2023-04-22T04:25:57.585Z,14.31
2023-04-22T04:26:57.561Z,14.34
2023-04-22T04:27:57.549Z,14.31
2023-04-22T04:28:57.554Z,14.35
2023-04-22T04:29:57.539Z,14.32
2023-04-22T04:30:57.579Z,14.34
2023-04-22T04:31:57.513Z,14.29
2023-04-22T04:32:57.559Z,14.29
2023-04-22T04:33:57.516Z,14.32
2023-04-22T04:34:57.489Z,14.35
2023-04-22T04:35:57.485Z,14.32
2023-04-22T04:36:57.474Z,14.35
2023-04-22T04:37:57.485Z,14.32
2023-04-22T04:38:57.460Z,14.34
2023-04-22T04:39:57.503Z,14.35
2023-04-22T04:40:57.544Z,14.29
2023-04-22T04:41:57.556Z,14.29
2023-04-22T04:42:57.613Z,14.24
2023-04-22T04:43:57.664Z,14.27
2023-04-22T04:44:57.689Z,14.28
2023-04-22T04:45:57.742Z,14.28
2023-04-22T04:46:57.828Z,14.29
2023-04-22T04:47:57.823Z,14.31
2023-04-22T04:48:57.844Z,14.28
2023-04-22T04:49:57.895Z,14.31
2023-04-22T04:50:57.941Z,14.31
2023-04-22T04:51:57.980Z,14.27
2023-04-22T04:52:58.031Z,14.28
2023-04-22T04:53:58.071Z,14.32
2023-04-22T04:54:58.094Z,14.31
2023-04-22T04:55:58.135Z,14.34
2023-04-22T04:56:58.169Z,14.32
2023-04-22T04:57:58.204Z,14.32
2023-04-22T04:58:58.243Z,14.38
2023-04-22T04:59:58.254Z,14.39
2023-04-22T05:00:58.257Z,14.41
2023-04-22T05:01:58.305Z,14.42
2023-04-22T05:02:58.377Z,14.45
2023-04-22T05:03:58.434Z,14.39
2023-04-22T05:04:58.437Z,14.42
2023-04-22T05:05:58.320Z,14.49
2023-04-22T05:06:58.321Z,14.51
2023-04-22T05:07:58.318Z,14.55
2023-04-22T05:08:58.355Z,14.59
2023-04-22T05:09:58.363Z,14.65
2023-04-22T05:10:58.425Z,14.69
2023-04-22T05:11:58.437Z,14.71
2023-04-22T05:12:58.447Z,14.76
2023-04-22T05:13:58.497Z,14.78
2023-04-22T05:14:58.556Z,14.80
2023-04-22T05:15:58.651Z,14.82
2023-04-22T05:16:58.740Z,14.80
2023-04-22T05:17:58.731Z,14.83
2023-04-22T05:18:58.742Z,14.87
2023-04-22T05:19:58.801Z,14.86
2023-04-22T05:20:58.862Z,14.90
2023-04-22T05:21:58.903Z,14.93
2023-04-22T05:22:58.950Z,14.97
2023-04-22T05:23:59.026Z,14.99
2023-04-22T05:24:59.086Z,15.02
2023-04-22T05:25:59.129Z,15.03
2023-04-22T05:26:59.164Z,15.06
2023-04-22T05:27:59.229Z,15.10
2023-04-22T05:28:59.271Z,14.94
2023-04-22T05:29:59.302Z,15.03
2023-04-22T05:30:59.323Z,15.09
2023-04-22T05:31:59.442Z,15.14
2023-04-22T05:32:59.436Z,15.20
2023-04-22T05:33:59.429Z,15.21
2023-04-22T05:34:59.473Z,15.23
2023-04-22T05:35:59.466Z,15.30
2023-04-22T05:36:59.488Z,15.30
2023-04-22T05:37:59.508Z,15.33
2023-04-22T05:38:59.516Z,15.37
2023-04-22T05:39:59.545Z,15.37
2023-04-22T05:40:59.578Z,15.38
2023-04-22T05:41:59.603Z,15.40
2023-04-22T05:42:59.613Z,15.45
2023-04-22T05:43:59.628Z,15.45
2023-04-22T05:44:59.667Z,15.48
2023-04-22T05:45:59.738Z,15.48
2023-04-22T05:46:59.672Z,15.50
2023-04-22T05:47:59.757Z,15.58
2023-04-22T05:48:59.712Z,15.58
2023-04-22T05:49:59.713Z,15.61
2023-04-22T05:50:59.717Z,15.62
2023-04-22T05:51:59.686Z,15.61
2023-04-22T05:52:59.753Z,15.62
2023-04-22T05:53:59.788Z,15.64
2023-04-22T05:54:59.711Z,15.65
2023-04-22T05:55:59.715Z,15.66
2023-04-22T05:56:59.690Z,15.69
2023-04-22T05:57:59.688Z,15.69
2023-04-22T05:58:59.716Z,15.68
2023-04-22T05:59:59.711Z,15.66
2023-04-22T06:00:59.703Z,15.68
2023-04-22T06:01:59.731Z,15.71
2023-04-22T06:02:59.867Z,15.66
2023-04-22T06:03:59.972Z,15.71
2023-04-22T06:05:00.043Z,15.72
2023-04-22T06:05:59.762Z,15.72
2023-04-22T06:06:59.730Z,15.77
2023-04-22T06:07:59.721Z,15.78
2023-04-22T06:08:59.719Z,15.69
2023-04-22T06:10:05.065Z,15.68
2023-04-22T06:11:00.705Z,15.79
2023-04-22T06:11:59.698Z,15.81
2023-04-22T06:12:59.689Z,15.82
2023-04-22T06:13:59.687Z,15.84
2023-04-22T06:14:59.689Z,15.88
2023-04-22T06:15:59.717Z,15.88
2023-04-22T06:16:59.669Z,15.86
2023-04-22T06:17:59.692Z,15.86
2023-04-22T06:18:59.640Z,15.84
2023-04-22T06:19:59.631Z,15.91
2023-04-22T06:20:59.635Z,15.91
2023-04-22T06:21:59.626Z,15.93
2023-04-22T06:22:59.646Z,15.98
2023-04-22T06:23:59.688Z,15.98
2023-04-22T06:24:59.682Z,15.93
2023-04-22T06:25:59.723Z,15.96
2023-04-22T06:26:59.732Z,16.01
2023-04-22T06:27:59.768Z,15.99
2023-04-22T06:28:59.830Z,16.03
2023-04-22T06:29:59.887Z,16.09
2023-04-22T06:30:59.942Z,16.10
2023-04-22T06:32:00.000Z,16.12
2023-04-22T06:33:00.078Z,16.15
2023-04-22T06:34:00.115Z,16.16
2023-04-22T06:35:00.187Z,16.19
2023-04-22T06:36:00.246Z,16.08
2023-04-22T06:37:00.263Z,16.15
2023-04-22T06:38:00.310Z,16.15
2023-04-22T06:39:00.385Z,16.20
2023-04-22T06:40:00.437Z,16.17
2023-04-22T06:41:00.502Z,16.22
2023-04-22T06:42:00.526Z,16.24
2023-04-22T06:43:00.590Z,16.29
2023-04-22T06:44:00.638Z,16.27
2023-04-22T06:45:00.684Z,16.34
2023-04-22T06:46:00.741Z,16.36
2023-04-22T06:47:00.931Z,16.36
2023-04-22T06:48:00.882Z,16.40
2023-04-22T06:49:00.909Z,16.37
2023-04-22T06:50:00.980Z,16.40
2023-04-22T06:51:00.994Z,16.33
2023-04-22T06:52:01.017Z,16.31
2023-04-22T06:53:01.056Z,16.41
2023-04-22T06:54:01.058Z,16.47
2023-04-22T06:55:01.104Z,16.47
2023-04-22T06:56:01.130Z,16.50
2023-04-22T06:57:01.156Z,16.50
2023-04-22T06:58:01.173Z,16.56
2023-04-22T06:59:01.192Z,16.60
2023-04-22T07:00:01.237Z,16.66
2023-04-22T07:01:01.250Z,16.70
2023-04-22T07:02:01.293Z,16.72
2023-04-22T07:03:01.311Z,16.80
2023-04-22T07:04:01.319Z,16.81
2023-04-22T07:05:01.287Z,16.78
2023-04-22T07:06:01.302Z,16.81
2023-04-22T07:07:01.283Z,16.85
2023-04-22T07:08:01.306Z,16.95
2023-04-22T07:09:01.360Z,16.95
2023-04-22T07:10:01.417Z,16.99
2023-04-22T07:11:01.477Z,17.07
2023-04-22T07:12:01.524Z,17.08
2023-04-22T07:13:01.582Z,17.11
2023-04-22T07:14:01.647Z,17.15
2023-04-22T07:15:01.751Z,17.18
2023-04-22T07:16:01.801Z,17.19
2023-04-22T07:17:01.808Z,17.28
2023-04-22T07:18:01.867Z,17.28
2023-04-22T07:19:01.879Z,17.32
2023-04-22T07:20:01.921Z,17.14
2023-04-22T07:21:01.954Z,17.25
2023-04-22T07:22:01.973Z,17.30
2023-04-22T07:23:02.016Z,17.25
2023-04-22T07:24:02.041Z,17.30
2023-04-22T07:25:02.055Z,17.36
2023-04-22T07:26:02.071Z,17.42
2023-04-22T07:27:02.074Z,17.40
2023-04-22T07:28:02.101Z,17.49
2023-04-22T07:29:02.087Z,17.42
2023-04-22T07:30:02.103Z,17.39
2023-04-22T07:31:02.109Z,17.14
2023-04-22T07:32:02.155Z,17.32
2023-04-22T07:33:02.201Z,17.42
2023-04-22T07:34:02.149Z,17.50
2023-04-22T07:35:02.152Z,17.60
2023-04-22T07:36:02.164Z,17.65
2023-04-22T07:37:02.161Z,17.73
2023-04-22T07:38:02.173Z,17.73
2023-04-22T07:39:02.186Z,17.81
2023-04-22T07:40:02.198Z,17.80
2023-04-22T07:41:02.228Z,17.86
2023-04-22T07:42:02.234Z,17.86
2023-04-22T07:43:02.245Z,17.83
2023-04-22T07:44:02.258Z,17.87
2023-04-22T07:45:02.283Z,17.90
2023-04-22T07:46:02.306Z,17.91
2023-04-22T07:47:02.300Z,17.96
2023-04-22T07:48:02.353Z,18.04
2023-04-22T07:49:02.336Z,18.05
2023-04-22T07:50:02.364Z,18.14
2023-04-22T07:51:02.377Z,18.07
2023-04-22T07:52:02.374Z,18.00
2023-04-22T07:53:02.395Z,18.14
2023-04-22T07:54:02.476Z,18.18
2023-04-22T07:55:02.513Z,18.17
2023-04-22T07:56:02.579Z,18.28
2023-04-22T07:57:02.521Z,18.19
2023-04-22T07:58:02.540Z,18.31
2023-04-22T07:59:02.523Z,18.38
2023-04-22T08:00:02.605Z,18.41
2023-04-22T08:01:02.620Z,18.45
2023-04-22T08:02:02.692Z,18.54
2023-04-22T08:03:02.752Z,18.59
2023-04-22T08:04:02.891Z,18.65
2023-04-22T08:05:02.809Z,18.69
2023-04-22T08:06:02.831Z,18.62
2023-04-22T08:07:09.250Z,18.66
2023-04-22T08:08:03.852Z,18.72
2023-04-22T08:09:02.864Z,18.70
2023-04-22T08:10:02.859Z,18.77
2023-04-22T08:11:02.850Z,18.63
2023-04-22T08:12:02.812Z,18.75
2023-04-22T08:13:02.820Z,18.82
2023-04-22T08:14:02.815Z,18.77
2023-04-22T08:15:02.792Z,18.77
2023-04-22T08:16:02.837Z,18.83
2023-04-22T08:17:02.900Z,18.80
2023-04-22T08:18:02.953Z,18.90
2023-04-22T08:19:02.983Z,18.93
2023-04-22T08:20:03.346Z,18.96
2023-04-22T08:21:03.060Z,18.99
2023-04-22T08:22:03.107Z,18.97
2023-04-22T08:23:03.164Z,19.06
2023-04-22T08:24:03.204Z,19.09
2023-04-22T08:25:03.239Z,19.10
2023-04-22T08:26:03.276Z,19.14
2023-04-22T08:27:03.397Z,19.21
2023-04-22T08:28:03.356Z,19.20
2023-04-22T08:29:03.429Z,19.26
2023-04-22T08:30:03.403Z,19.28
2023-04-22T08:31:03.441Z,19.33
2023-04-22T08:32:03.469Z,19.35
2023-04-22T08:33:03.483Z,19.27
2023-04-22T08:34:03.491Z,19.33
2023-04-22T08:35:05.456Z,19.38
2023-04-22T08:36:03.528Z,19.42
2023-04-22T08:37:03.544Z,19.37
2023-04-22T08:38:03.527Z,19.41
2023-04-22T08:39:03.552Z,19.45
2023-04-22T08:40:03.608Z,19.50
2023-04-22T08:41:03.590Z,19.50
2023-04-22T08:42:03.617Z,19.51
2023-04-22T08:43:03.620Z,19.55
2023-04-22T08:44:03.632Z,19.58
2023-04-22T08:45:03.641Z,19.58
2023-04-22T08:46:03.652Z,19.60
2023-04-22T08:47:03.804Z,19.61
2023-04-22T08:48:03.659Z,19.61
2023-04-22T08:49:03.686Z,19.65
2023-04-22T08:50:03.689Z,19.47
2023-04-22T08:51:03.674Z,19.54
2023-04-22T08:52:03.675Z,19.60
2023-04-22T08:53:03.672Z,19.65
2023-04-22T08:54:03.698Z,19.69
2023-04-22T08:55:03.733Z,19.72
2023-04-22T08:56:03.785Z,19.74
2023-04-22T08:57:03.806Z,19.82
2023-04-22T08:58:03.881Z,19.84
2023-04-22T08:59:03.907Z,19.84
2023-04-22T09:00:03.978Z,19.85
2023-04-22T09:01:04.022Z,19.85
2023-04-22T09:02:04.185Z,19.89
2023-04-22T09:03:04.153Z,19.91
2023-04-22T09:04:04.183Z,19.84
2023-04-22T09:05:04.176Z,19.65
2023-04-22T09:06:04.242Z,19.76
2023-04-22T09:07:04.285Z,19.81
2023-04-22T09:08:04.358Z,19.86
2023-04-22T09:09:04.366Z,19.93
2023-04-22T09:10:04.422Z,19.93
2023-04-22T09:11:04.488Z,19.99
2023-04-22T09:12:04.508Z,19.96
2023-04-22T09:13:04.564Z,20.03
2023-04-22T09:14:04.609Z,20.12
2023-04-22T09:15:04.614Z,20.15
2023-04-22T09:16:04.675Z,20.09
2023-04-22T09:17:04.680Z,19.93
2023-04-22T09:18:04.710Z,19.89
2023-04-22T09:19:04.724Z,20.03
2023-04-22T09:20:04.748Z,20.12
2023-04-22T09:21:04.762Z,20.15
2023-04-22T09:22:04.764Z,20.16
2023-04-22T09:23:04.778Z,20.22
2023-04-22T09:24:04.805Z,20.25
2023-04-22T09:25:04.853Z,20.17
2023-04-22T09:26:04.845Z,20.25
2023-04-22T09:27:04.886Z,20.27
2023-04-22T09:28:04.894Z,20.32
2023-04-22T09:29:04.912Z,20.34
2023-04-22T09:30:04.920Z,20.39
2023-04-22T09:31:04.928Z,20.40
2023-04-22T09:32:05.006Z,20.39
2023-04-22T09:33:05.067Z,20.47
2023-04-22T09:34:04.975Z,20.43
2023-04-22T09:35:05.054Z,20.43
2023-04-22T09:36:05.002Z,20.46
2023-04-22T09:37:04.989Z,20.56
2023-04-22T09:38:05.015Z,20.63
2023-04-22T09:39:05.064Z,20.62
2023-04-22T09:40:05.015Z,20.66
2023-04-22T09:41:05.027Z,20.54
2023-04-22T09:42:05.024Z,20.60
2023-04-22T09:43:05.033Z,20.67
2023-04-22T09:44:05.022Z,20.71
2023-04-22T09:45:05.029Z,20.68
2023-04-22T09:46:05.094Z,20.71
2023-04-22T09:47:05.025Z,20.74
2023-04-22T09:48:05.044Z,20.78
2023-04-22T09:49:05.031Z,20.81
2023-04-22T09:50:05.047Z,20.88
2023-04-22T09:51:05.105Z,20.81
2023-04-22T09:52:05.165Z,20.77
2023-04-22T09:53:05.231Z,20.83
2023-04-22T09:54:05.297Z,20.80
2023-04-22T09:55:05.321Z,20.83
2023-04-22T09:56:05.386Z,20.87
2023-04-22T09:57:06.718Z,20.91
2023-04-22T09:58:05.501Z,20.93
2023-04-22T09:59:05.550Z,20.87
2023-04-22T10:00:05.609Z,20.93
2023-04-22T10:01:05.714Z,20.95
2023-04-22T10:02:05.730Z,20.99
2023-04-22T10:03:07.361Z,21.08
2023-04-22T10:04:05.804Z,21.02
2023-04-22T10:05:05.774Z,21.06
2023-04-22T10:06:05.773Z,21.09
2023-04-22T10:07:05.757Z,21.08
2023-04-22T10:08:05.782Z,21.04
2023-04-22T10:09:06.555Z,21.04
2023-04-22T10:10:05.842Z,21.08
2023-04-22T10:11:05.881Z,21.09
2023-04-22T10:12:05.956Z,21.12
2023-04-22T10:13:05.996Z,21.18
2023-04-22T10:14:06.000Z,21.23
2023-04-22T10:15:06.025Z,21.25
2023-04-22T10:16:06.070Z,21.29
2023-04-22T10:17:06.138Z,21.29
2023-04-22T10:18:06.171Z,21.32
2023-04-22T10:19:06.184Z,21.31
2023-04-22T10:20:06.212Z,21.25
2023-04-22T10:21:06.246Z,21.23
2023-04-22T10:22:06.257Z,21.21
2023-04-22T10:23:06.297Z,21.31
2023-04-22T10:24:06.330Z,21.35
2023-04-22T10:25:06.341Z,21.39
2023-04-22T10:26:06.375Z,21.39
2023-04-22T10:27:06.362Z,21.46
2023-04-22T10:28:06.429Z,21.48
2023-04-22T10:29:06.432Z,21.48
2023-04-22T10:30:06.478Z,21.22
2023-04-22T10:31:06.567Z,21.39
2023-04-22T10:32:07.953Z,21.43
2023-04-22T10:33:06.585Z,21.09
2023-04-22T10:34:06.573Z,21.28
2023-04-22T10:35:06.526Z,21.38
2023-04-22T10:36:06.557Z,21.46
2023-04-22T10:37:06.545Z,21.46
2023-04-22T10:38:06.526Z,21.53
2023-04-22T10:39:06.524Z,21.54
2023-04-22T10:40:06.528Z,21.60
2023-04-22T10:41:06.550Z,21.64
2023-04-22T10:42:06.494Z,21.56
2023-04-22T10:43:06.491Z,21.64
2023-04-22T10:44:06.480Z,21.70
2023-04-22T10:45:06.489Z,21.72
2023-04-22T10:46:06.521Z,21.70
2023-04-22T10:47:06.452Z,21.59
2023-04-22T10:48:06.509Z,21.67
2023-04-22T10:49:06.849Z,21.73
2023-04-22T10:50:06.446Z,21.80
2023-04-22T10:51:06.534Z,21.80
2023-04-22T10:52:06.484Z,21.84
2023-04-22T10:53:06.430Z,21.86
2023-04-22T10:54:06.443Z,21.93
2023-04-22T10:55:06.411Z,21.90
2023-04-22T10:56:06.431Z,21.99
2023-04-22T10:57:06.398Z,22.00
2023-04-22T10:58:06.392Z,22.03
2023-04-22T10:59:06.379Z,22.12
2023-04-22T11:00:06.387Z,21.82
2023-04-22T11:01:06.458Z,22.01
2023-04-22T11:02:06.446Z,21.97
2023-04-22T11:03:06.502Z,22.08
2023-04-22T11:04:06.425Z,22.11
2023-04-22T11:05:06.357Z,22.21
2023-04-22T11:06:06.371Z,22.27
2023-04-22T11:07:06.346Z,22.28
2023-04-22T11:08:06.341Z,22.32
2023-04-22T11:09:06.321Z,22.30
2023-04-22T11:10:06.324Z,22.24
2023-04-22T11:11:06.328Z,22.28
2023-04-22T11:12:06.312Z,22.38
2023-04-22T11:13:06.294Z,22.42
2023-04-22T11:14:06.305Z,22.41
2023-04-22T11:15:06.286Z,22.40
2023-04-22T11:16:06.299Z,22.45
2023-04-22T11:17:06.274Z,22.42
2023-04-22T11:18:06.272Z,22.44
2023-04-22T11:19:06.248Z,22.48
2023-04-22T11:20:06.254Z,22.55
2023-04-22T11:21:06.269Z,22.51
2023-04-22T11:22:06.233Z,22.51
2023-04-22T11:23:06.241Z,22.56
2023-04-22T11:24:06.284Z,22.55
2023-04-22T11:25:06.219Z,22.61
2023-04-22T11:26:06.225Z,22.62
2023-04-22T11:27:06.207Z,22.69
2023-04-22T11:28:06.190Z,22.71
2023-04-22T11:29:06.219Z,22.69
2023-04-22T11:30:06.170Z,22.73
2023-04-22T11:31:06.172Z,22.80
2023-04-22T11:32:06.169Z,22.83
2023-04-22T11:33:06.159Z,22.85
2023-04-22T11:34:06.154Z,22.92
2023-04-22T11:35:06.127Z,22.92
2023-04-22T11:36:06.155Z,22.99
2023-04-22T11:37:06.163Z,22.98
2023-04-22T11:38:06.223Z,23.02
2023-04-22T11:39:06.304Z,23.05
2023-04-22T11:41:06.394Z,23.03
2023-04-22T11:42:06.320Z,22.89
2023-04-22T11:43:06.316Z,22.89
2023-04-22T11:44:06.301Z,22.83
2023-04-22T11:45:06.295Z,22.65
2023-04-22T11:46:06.302Z,22.68
2023-04-22T11:47:06.300Z,22.78
2023-04-22T11:48:06.284Z,22.85
2023-04-22T11:49:06.287Z,22.85
2023-04-22T11:50:06.269Z,22.85
2023-04-22T11:51:06.270Z,22.98
2023-04-22T11:52:06.241Z,23.00
2023-04-22T11:53:06.237Z,23.00
2023-04-22T11:54:06.247Z,22.93
2023-04-22T11:55:06.238Z,23.06
2023-04-22T11:56:06.227Z,23.11
2023-04-22T11:57:06.241Z,23.17
2023-04-22T11:58:06.206Z,23.21
2023-04-22T11:59:06.191Z,23.26
2023-04-22T12:00:06.208Z,23.29
2023-04-22T12:01:06.202Z,23.24
2023-04-22T12:02:06.256Z,23.29
2023-04-22T12:03:06.221Z,23.30
2023-04-22T12:04:06.334Z,23.29
2023-04-22T12:05:06.198Z,23.37
2023-04-22T12:06:06.157Z,23.27
2023-04-22T12:07:06.159Z,23.37
2023-04-22T12:08:06.137Z,23.31
2023-04-22T12:09:06.121Z,23.33
2023-04-22T12:10:06.126Z,23.31
2023-04-22T12:11:06.130Z,23.34
2023-04-22T12:12:06.109Z,23.41
2023-04-22T12:13:06.096Z,23.44
2023-04-22T12:14:06.080Z,23.54
2023-04-22T12:15:06.070Z,23.47
2023-04-22T12:16:06.063Z,23.57
2023-04-22T12:17:06.142Z,23.53
2023-04-22T12:18:06.058Z,23.58
2023-04-22T12:19:06.053Z,23.58
2023-04-22T12:20:06.031Z,23.54
2023-04-22T12:21:06.052Z,23.64
2023-04-22T12:22:06.031Z,23.69
2023-04-22T12:23:06.021Z,23.65
2023-04-22T12:24:06.035Z,23.77
2023-04-22T12:25:06.009Z,23.78
2023-04-22T12:26:06.001Z,23.78
2023-04-22T12:27:06.005Z,23.84
2023-04-22T12:28:05.971Z,23.87
2023-04-22T12:29:05.981Z,23.74
2023-04-22T12:30:05.983Z,23.64
2023-04-22T12:31:05.993Z,23.61
2023-04-22T12:32:05.970Z,23.56
2023-04-22T12:33:05.954Z,23.67
2023-04-22T12:34:05.985Z,23.67
2023-04-22T12:35:05.954Z,23.60
2023-04-22T12:36:05.942Z,23.68
2023-04-22T12:37:05.919Z,23.62
2023-04-22T12:38:05.925Z,23.77
2023-04-22T12:39:05.915Z,23.81
2023-04-22T12:40:05.920Z,23.84
2023-04-22T12:41:05.919Z,23.94
2023-04-22T12:42:05.947Z,23.92
2023-04-22T12:43:06.039Z,23.95
2023-04-22T12:44:06.001Z,23.98
2023-04-22T12:45:06.041Z,23.99
2023-04-22T12:46:06.065Z,24.04
2023-04-22T12:47:06.104Z,24.06
2023-04-22T12:48:06.129Z,24.04
2023-04-22T12:49:06.146Z,24.15
2023-04-22T12:50:06.177Z,24.15
2023-04-22T12:51:06.202Z,24.25
2023-04-22T12:52:06.237Z,24.19
2023-04-22T12:53:06.229Z,24.25
2023-04-22T12:54:06.280Z,24.23